createdAt,value
2019-04-16T00:02:00.207Z,10.20
2019-04-16T00:04:50.517Z,10.20
2019-04-16T00:07:54.922Z,10.20
2019-04-16T00:10:32.185Z,10.00
2019-04-16T00:13:14.796Z,10.00
2019-04-16T00:15:44.729Z,9.90
2019-04-16T00:18:18.425Z,9.90
2019-04-16T00:21:09.505Z,9.90
2019-04-16T00:23:55.576Z,9.80
2019-04-16T00:26:26.785Z,9.70
2019-04-16T00:29:01.613Z,9.60
2019-04-16T00:31:28.524Z,9.60
2019-04-16T00:33:58.362Z,9.50
2019-04-16T00:36:28.319Z,9.50
2019-04-16T00:38:58.204Z,9.40
2019-04-16T00:41:28.168Z,9.40
2019-04-16T00:43:58.086Z,9.30
2019-04-16T00:46:27.960Z,9.30
2019-04-16T00:48:57.794Z,9.40
2019-04-16T00:51:27.642Z,9.30
2019-04-16T00:53:58.043Z,9.20
2019-04-16T00:56:28.523Z,9.20
2019-04-16T00:58:58.322Z,9.20
2019-04-16T01:01:28.089Z,9.10
2019-04-16T01:03:57.754Z,9.00
2019-04-16T01:06:27.532Z,9.00
2019-04-16T01:08:57.455Z,8.90
2019-04-16T01:11:27.369Z,9.00
2019-04-16T01:13:57.240Z,9.00
2019-04-16T01:16:27.186Z,8.90
2019-04-16T01:18:57.118Z,8.90
2019-04-16T01:21:26.922Z,8.90
2019-04-16T01:23:56.608Z,8.90
2019-04-16T01:26:26.879Z,8.90
2019-04-16T01:29:10.394Z,9.00
2019-04-16T01:31:59.114Z,9.00
2019-04-16T01:34:47.123Z,9.00
2019-04-16T01:37:25.591Z,9.00
2019-04-16T01:39:56.485Z,9.00
2019-04-16T01:42:35.981Z,8.90
2019-04-16T01:45:07.227Z,8.80
2019-04-16T01:47:37.345Z,8.80
2019-04-16T01:50:13.000Z,8.80
2019-04-16T01:52:39.842Z,8.70
2019-04-16T01:55:09.816Z,8.80
2019-04-16T01:57:39.448Z,8.70
2019-04-16T02:00:10.040Z,8.70
2019-04-16T02:02:39.878Z,8.80
2019-04-16T02:05:09.664Z,8.70
2019-04-16T02:07:39.408Z,8.60
2019-04-16T02:10:11.168Z,8.50
2019-04-16T02:12:43.368Z,8.30
2019-04-16T02:15:12.424Z,8.20
2019-04-16T02:17:42.126Z,8.10
2019-04-16T02:20:12.325Z,8.00
2019-04-16T02:22:42.332Z,7.90
2019-04-16T02:25:16.422Z,7.90
2019-04-16T02:27:44.959Z,7.90
2019-04-16T02:30:14.786Z,7.90
2019-04-16T02:32:44.569Z,8.00
2019-04-16T02:35:14.248Z,8.10
2019-04-16T02:37:44.729Z,8.00
2019-04-16T02:40:18.909Z,8.00
2019-04-16T02:42:51.503Z,7.90
2019-04-16T02:45:23.735Z,7.70
2019-04-16T02:47:54.708Z,7.60
2019-04-16T02:50:42.303Z,7.40
2019-04-16T02:53:31.697Z,7.20
2019-04-16T02:56:25.159Z,7.10
2019-04-16T02:59:12.207Z,7.10
2019-04-16T03:01:56.175Z,7.40
2019-04-16T03:04:30.196Z,7.60
2019-04-16T03:07:03.305Z,7.80
2019-04-16T03:09:34.007Z,7.80
2019-04-16T03:12:05.699Z,7.80
2019-04-16T03:14:40.301Z,7.80
2019-04-16T03:17:29.440Z,7.80
2019-04-16T03:20:01.797Z,7.70
2019-04-16T03:22:37.008Z,7.50
2019-04-16T03:25:12.578Z,7.40
2019-04-16T03:27:51.461Z,7.10
2019-04-16T03:30:24.799Z,7.10
2019-04-16T03:32:55.142Z,7.10
2019-04-16T03:35:27.130Z,7.10
2019-04-16T03:38:04.946Z,7.20
2019-04-16T03:40:36.250Z,7.20
2019-04-16T03:43:13.605Z,7.10
2019-04-16T03:45:44.558Z,7.10
2019-04-16T03:48:25.198Z,7.00
2019-04-16T03:51:03.663Z,6.90
2019-04-16T03:53:46.574Z,6.80
2019-04-16T03:56:17.511Z,6.80
2019-04-16T03:58:49.289Z,6.70
2019-04-16T04:01:22.733Z,6.70
2019-04-16T04:03:54.470Z,6.70
2019-04-16T04:06:26.048Z,6.70
2019-04-16T04:09:05.696Z,6.70
2019-04-16T04:11:40.853Z,6.60
2019-04-16T04:14:10.339Z,6.50
2019-04-16T04:16:45.005Z,6.40
2019-04-16T04:19:16.048Z,6.40
2019-04-16T04:21:50.567Z,6.40
2019-04-16T04:24:19.630Z,6.40
2019-04-16T04:26:49.578Z,6.40
2019-04-16T04:29:20.706Z,6.40
2019-04-16T04:31:50.954Z,6.30
2019-04-16T04:34:20.802Z,6.30
2019-04-16T04:36:50.514Z,6.30
2019-04-16T04:39:20.216Z,6.30
2019-04-16T04:41:52.590Z,6.20
2019-04-16T04:44:26.119Z,6.20
2019-04-16T04:46:57.662Z,6.20
2019-04-16T04:49:30.345Z,6.10
2019-04-16T04:51:59.916Z,6.10
2019-04-16T04:54:32.057Z,6.10
2019-04-16T04:57:02.313Z,6.10
2019-04-16T04:59:37.816Z,6.10
2019-04-16T05:02:10.848Z,6.10
2019-04-16T05:04:49.574Z,6.20
2019-04-16T05:07:21.165Z,6.20
2019-04-16T05:09:50.960Z,6.30
2019-04-16T05:12:21.606Z,6.30
2019-04-16T05:14:58.418Z,6.30
2019-04-16T05:17:31.691Z,6.40
2019-04-16T05:20:02.866Z,6.50
2019-04-16T05:22:35.083Z,6.50
2019-04-16T05:25:05.003Z,6.60
2019-04-16T05:27:40.225Z,6.60
2019-04-16T05:30:06.873Z,6.60
2019-04-16T05:32:36.739Z,6.60
2019-04-16T05:35:09.590Z,6.60
2019-04-16T05:37:38.008Z,6.60
2019-04-16T05:40:08.204Z,6.60
2019-04-16T05:42:38.137Z,6.70
2019-04-16T05:45:08.730Z,6.80
2019-04-16T05:47:40.146Z,6.80
2019-04-16T05:50:14.369Z,6.90
2019-04-16T05:52:46.444Z,6.90
2019-04-16T05:55:36.043Z,7.00
2019-04-16T05:58:06.599Z,6.90
2019-04-16T06:01:07.274Z,7.00
2019-04-16T06:03:42.162Z,7.10
2019-04-16T06:06:13.263Z,7.20
2019-04-16T06:08:43.485Z,7.20
2019-04-16T06:11:26.702Z,7.30
2019-04-16T06:13:56.085Z,7.50
2019-04-16T06:16:44.158Z,7.50
2019-04-16T06:19:51.086Z,7.60
2019-04-16T06:22:41.790Z,7.70
2019-04-16T06:25:41.018Z,7.70
2019-04-16T06:28:26.800Z,7.70
2019-04-16T06:31:21.652Z,7.80
2019-04-16T06:34:02.389Z,7.80
2019-04-16T06:36:50.070Z,8.00
2019-04-16T06:39:45.080Z,8.10
2019-04-16T06:42:29.090Z,8.30
2019-04-16T06:45:01.696Z,8.30
2019-04-16T06:48:00.132Z,8.40
2019-04-16T06:50:47.446Z,8.50
2019-04-16T06:53:38.435Z,8.60
2019-04-16T06:56:20.690Z,8.70
2019-04-16T06:58:57.176Z,8.70
2019-04-16T07:01:57.813Z,8.80
2019-04-16T07:04:35.441Z,8.80
2019-04-16T07:07:40.081Z,8.80
2019-04-16T07:10:09.183Z,8.90
2019-04-16T07:12:39.324Z,9.00
2019-04-16T07:15:10.012Z,9.10
2019-04-16T07:17:40.646Z,9.10
2019-04-16T07:20:13.493Z,9.20
2019-04-16T07:22:44.012Z,9.20
2019-04-16T07:25:14.347Z,9.30
2019-04-16T07:27:58.976Z,9.50
2019-04-16T07:30:39.812Z,9.60
2019-04-16T07:33:17.251Z,9.80
2019-04-16T07:36:18.331Z,10.00
2019-04-16T07:39:28.210Z,10.10
2019-04-16T07:42:22.182Z,10.30
2019-04-16T07:45:11.385Z,10.40
2019-04-16T07:47:57.746Z,10.60
2019-04-16T07:50:48.657Z,10.70
2019-04-16T07:53:28.445Z,10.80
2019-04-16T07:56:04.289Z,11.00
2019-04-16T07:58:34.306Z,11.20
2019-04-16T08:01:04.352Z,11.40
2019-04-16T08:03:34.131Z,11.60
2019-04-16T08:06:04.153Z,11.70
2019-04-16T08:08:34.171Z,11.90
2019-04-16T08:11:04.709Z,12.20
2019-04-16T08:13:35.847Z,12.40
2019-04-16T08:16:05.723Z,12.70
2019-04-16T08:18:37.801Z,12.90
2019-04-16T08:21:12.077Z,13.10
2019-04-16T08:23:42.462Z,13.20
2019-04-16T08:26:13.836Z,13.30
2019-04-16T08:28:46.731Z,13.40
2019-04-16T08:31:20.319Z,13.50
2019-04-16T08:33:50.421Z,13.60
2019-04-16T08:36:20.113Z,13.70
2019-04-16T08:38:50.159Z,13.70
2019-04-16T08:41:21.446Z,13.70
2019-04-16T08:43:51.317Z,13.60
2019-04-16T08:46:23.913Z,13.60
2019-04-16T08:48:54.707Z,13.70
2019-04-16T08:51:30.819Z,13.70
2019-04-16T08:53:55.921Z,13.90
2019-04-16T08:56:25.839Z,14.00
2019-04-16T08:58:59.905Z,14.10
2019-04-16T09:01:29.591Z,14.20
2019-04-16T09:04:03.133Z,14.20
2019-04-16T09:06:33.134Z,14.30
2019-04-16T09:09:24.610Z,14.40
2019-04-16T09:11:56.478Z,14.40
2019-04-16T09:14:28.466Z,14.50
2019-04-16T09:17:11.324Z,14.60
2019-04-16T09:19:43.954Z,14.80
2019-04-16T09:22:26.267Z,14.80
2019-04-16T09:25:00.901Z,15.00
2019-04-16T09:27:34.483Z,15.10
2019-04-16T09:30:27.613Z,15.20
2019-04-16T09:33:10.634Z,15.30
2019-04-16T09:35:58.172Z,15.50
2019-04-16T09:38:45.158Z,15.50
2019-04-16T09:41:44.172Z,15.70
2019-04-16T09:44:15.755Z,15.90
2019-04-16T09:46:51.166Z,16.10
2019-04-16T09:49:17.518Z,16.20
2019-04-16T09:51:50.325Z,16.40
2019-04-16T09:54:18.972Z,16.70
2019-04-16T09:56:50.065Z,17.60
2019-04-16T09:59:44.754Z,19.50
2019-04-16T10:02:17.677Z,20.90
2019-04-16T10:04:47.480Z,22.40
2019-04-16T10:07:17.255Z,23.40
2019-04-16T10:09:47.276Z,24.50
2019-04-16T10:12:18.334Z,24.60
2019-04-16T10:14:48.141Z,24.60
2019-04-16T10:17:17.952Z,25.50
2019-04-16T10:19:47.903Z,25.90
2019-04-16T10:22:18.041Z,26.40
2019-04-16T10:25:16.647Z,26.90
2019-04-16T10:27:52.976Z,26.10
2019-04-16T10:30:29.776Z,26.10
2019-04-16T10:33:01.655Z,25.30
2019-04-16T10:35:42.770Z,25.70
2019-04-16T10:38:40.020Z,26.70
2019-04-16T10:41:31.052Z,27.80
2019-04-16T10:44:18.512Z,28.20
2019-04-16T10:47:31.371Z,28.00
2019-04-16T10:50:10.382Z,28.10
2019-04-16T10:52:57.711Z,28.70
2019-04-16T10:55:35.060Z,28.30
2019-04-16T10:58:24.099Z,28.10
2019-04-16T11:01:08.556Z,27.80
2019-04-16T11:04:04.817Z,28.10
2019-04-16T11:06:41.520Z,27.90
2019-04-16T11:09:11.443Z,27.70
2019-04-16T11:11:41.436Z,27.30
2019-04-16T11:14:11.512Z,26.70
2019-04-16T11:16:43.595Z,27.00
2019-04-16T11:19:13.665Z,27.20
2019-04-16T11:21:43.696Z,27.80
2019-04-16T11:24:15.733Z,28.20
2019-04-16T11:26:52.429Z,28.80
2019-04-16T11:29:22.608Z,28.00
2019-04-16T11:31:52.469Z,28.00
2019-04-16T11:34:22.415Z,28.90
2019-04-16T11:36:52.367Z,29.80
2019-04-16T11:39:22.232Z,30.70
2019-04-16T11:41:52.206Z,31.80
2019-04-16T11:44:22.182Z,33.00
2019-04-16T11:46:51.996Z,32.70
2019-04-16T11:49:22.076Z,32.70
2019-04-16T11:51:52.040Z,32.60
2019-04-16T11:54:21.926Z,32.20
2019-04-16T11:56:51.760Z,32.90
2019-04-16T11:59:21.749Z,34.40
2019-04-16T12:02:10.627Z,33.60
2019-04-16T12:05:02.612Z,32.90
2019-04-16T12:07:52.253Z,33.30
2019-04-16T12:10:59.046Z,32.80
2019-04-16T12:13:52.878Z,32.80
2019-04-16T12:16:41.509Z,33.10
2019-04-16T12:19:36.240Z,32.40
2019-04-16T12:22:31.484Z,31.60
2019-04-16T12:25:23.348Z,31.30
2019-04-16T12:28:31.836Z,32.00
2019-04-16T12:31:19.827Z,32.10
2019-04-16T12:33:54.734Z,32.30
2019-04-16T12:36:42.755Z,33.10
2019-04-16T12:39:35.331Z,33.30
2019-04-16T12:42:06.879Z,32.30
2019-04-16T12:44:51.563Z,32.50
2019-04-16T12:47:35.698Z,33.00
2019-04-16T12:50:31.992Z,32.30
2019-04-16T12:53:07.070Z,31.50
2019-04-16T12:55:58.843Z,32.90
2019-04-16T12:59:00.984Z,33.30
2019-04-16T13:01:37.650Z,34.50
2019-04-16T13:04:11.497Z,35.50
2019-04-16T13:06:57.695Z,35.50
2019-04-16T13:10:01.707Z,35.00
2019-04-16T13:12:58.135Z,34.80
2019-04-16T13:15:46.732Z,34.40
2019-04-16T13:18:41.625Z,32.60
2019-04-16T13:21:28.442Z,31.30
2019-04-16T13:24:13.151Z,30.10
2019-04-16T13:27:14.007Z,29.90
2019-04-16T13:29:43.758Z,31.50
2019-04-16T13:32:13.995Z,32.60
2019-04-16T13:34:44.050Z,33.60
2019-04-16T13:37:13.949Z,32.30
2019-04-16T13:39:59.529Z,32.60
2019-04-16T13:42:30.250Z,33.80
2019-04-16T13:45:17.581Z,34.90
2019-04-16T13:47:48.294Z,34.80
2019-04-16T13:50:25.961Z,34.00
2019-04-16T13:53:01.570Z,34.20
2019-04-16T13:55:57.082Z,34.50
2019-04-16T13:58:40.579Z,36.00
2019-04-16T14:01:19.646Z,34.40
2019-04-16T14:03:49.607Z,32.90
2019-04-16T14:06:19.481Z,32.60
2019-04-16T14:08:49.432Z,33.10
2019-04-16T14:11:25.971Z,33.50
2019-04-16T14:13:55.811Z,33.30
2019-04-16T14:16:25.809Z,32.30
2019-04-16T14:18:55.649Z,31.60
2019-04-16T14:21:26.058Z,29.90
2019-04-16T14:23:56.068Z,30.00
2019-04-16T14:26:25.820Z,31.20
2019-04-16T14:28:56.989Z,31.50
2019-04-16T14:31:27.569Z,31.60
2019-04-16T14:34:06.514Z,30.80
2019-04-16T14:36:36.441Z,30.20
2019-04-16T14:39:25.899Z,29.60
2019-04-16T14:41:55.812Z,29.50
2019-04-16T14:44:27.532Z,28.70
2019-04-16T14:47:00.578Z,27.60
2019-04-16T14:49:30.073Z,26.90
2019-04-16T14:52:03.096Z,25.60
2019-04-16T14:54:47.515Z,25.10
2019-04-16T14:57:18.068Z,24.20
2019-04-16T14:59:58.800Z,23.30
2019-04-16T15:02:45.679Z,22.40
2019-04-16T15:05:33.320Z,21.90
2019-04-16T15:08:20.554Z,21.60
2019-04-16T15:11:09.323Z,21.40
2019-04-16T15:13:56.807Z,21.60
2019-04-16T15:17:01.013Z,21.60
2019-04-16T15:19:48.719Z,21.50
2019-04-16T15:22:31.716Z,21.10
2019-04-16T15:25:21.312Z,21.00
2019-04-16T15:28:21.442Z,20.90
2019-04-16T15:31:05.714Z,21.00
2019-04-16T15:33:52.487Z,21.00
2019-04-16T15:36:29.567Z,21.00
2019-04-16T15:39:18.519Z,21.00
2019-04-16T15:42:19.744Z,21.10
2019-04-16T15:45:25.627Z,21.10
2019-04-16T15:48:29.768Z,21.30
2019-04-16T15:51:21.655Z,21.20
2019-04-16T15:54:16.361Z,21.00
2019-04-16T15:57:07.900Z,21.10
2019-04-16T15:59:41.972Z,20.80
2019-04-16T16:02:33.575Z,20.60
2019-04-16T16:05:22.410Z,20.50
2019-04-16T16:08:01.816Z,20.70
2019-04-16T16:10:36.667Z,20.90
2019-04-16T16:13:06.414Z,20.70
2019-04-16T16:15:40.203Z,20.30
2019-04-16T16:18:07.841Z,19.80
2019-04-16T16:20:37.750Z,19.50
2019-04-16T16:23:07.474Z,19.30
2019-04-16T16:25:41.157Z,19.20
2019-04-16T16:28:08.614Z,19.00
2019-04-16T16:30:38.605Z,19.00
2019-04-16T16:33:08.845Z,18.80
2019-04-16T16:35:38.981Z,18.60
2019-04-16T16:38:11.155Z,18.30
2019-04-16T16:40:40.408Z,17.90
2019-04-16T16:43:10.153Z,17.70
2019-04-16T16:45:49.064Z,17.40
2019-04-16T16:48:22.936Z,17.30
2019-04-16T16:50:58.725Z,17.20
2019-04-16T16:53:40.614Z,17.10
2019-04-16T16:56:39.050Z,17.00
2019-04-16T16:59:37.620Z,16.90
2019-04-16T17:02:26.340Z,16.80
2019-04-16T17:04:56.215Z,16.70
2019-04-16T17:07:26.148Z,16.70
2019-04-16T17:09:56.477Z,16.80
2019-04-16T17:12:26.381Z,16.80
2019-04-16T17:14:56.005Z,16.80
2019-04-16T17:17:25.978Z,16.70
2019-04-16T17:19:55.969Z,16.80
2019-04-16T17:22:32.623Z,16.70
2019-04-16T17:25:02.330Z,16.50
2019-04-16T17:27:32.139Z,16.40
2019-04-16T17:30:04.126Z,16.30
2019-04-16T17:32:36.716Z,16.20
2019-04-16T17:35:07.881Z,16.10
2019-04-16T17:37:43.849Z,16.00
2019-04-16T17:40:21.822Z,16.00
2019-04-16T17:42:55.326Z,15.90
2019-04-16T17:46:00.432Z,15.90
2019-04-16T17:48:52.224Z,15.90
2019-04-16T17:51:56.754Z,15.80
2019-04-16T17:54:38.464Z,15.80
2019-04-16T17:57:33.338Z,15.70
2019-04-16T18:00:34.621Z,15.70
2019-04-16T18:03:37.268Z,15.70
2019-04-16T18:06:29.184Z,15.60
2019-04-16T18:09:10.664Z,15.50
2019-04-16T18:11:55.352Z,15.40
2019-04-16T18:14:51.972Z,15.40
2019-04-16T18:17:47.343Z,15.30
2019-04-16T18:20:32.908Z,15.30
2019-04-16T18:23:21.648Z,15.30
2019-04-16T18:26:29.434Z,15.30
2019-04-16T18:29:02.670Z,15.20
2019-04-16T18:31:56.020Z,15.20
2019-04-16T18:34:43.488Z,15.20
2019-04-16T18:37:48.710Z,15.10
2019-04-16T18:40:39.444Z,15.10
2019-04-16T18:43:30.582Z,15.10
2019-04-16T18:46:20.483Z,15.10
2019-04-16T18:49:01.271Z,15.00
2019-04-16T18:51:33.542Z,15.00
2019-04-16T18:54:02.787Z,15.00
2019-04-16T18:56:41.481Z,14.90
2019-04-16T18:59:11.845Z,14.90
2019-04-16T19:01:43.280Z,14.90
2019-04-16T19:04:13.624Z,14.80
2019-04-16T19:06:47.608Z,14.70
2019-04-16T19:09:20.998Z,14.60
2019-04-16T19:11:55.586Z,14.60
2019-04-16T19:14:25.715Z,14.60
2019-04-16T19:17:08.160Z,14.60
2019-04-16T19:19:44.322Z,14.60
2019-04-16T19:22:18.488Z,14.60
2019-04-16T19:24:59.903Z,14.60
2019-04-16T19:27:30.810Z,14.50
2019-04-16T19:30:01.926Z,14.50
2019-04-16T19:32:35.154Z,14.40
2019-04-16T19:35:10.012Z,14.40
2019-04-16T19:37:38.586Z,14.30
2019-04-16T19:40:09.019Z,14.20
2019-04-16T19:42:39.229Z,14.10
2019-04-16T19:45:12.036Z,14.10
2019-04-16T19:47:41.470Z,14.00
2019-04-16T19:50:11.741Z,14.10
2019-04-16T19:52:45.446Z,14.10
2019-04-16T19:55:18.862Z,14.20
2019-04-16T19:57:55.995Z,14.20
2019-04-16T20:00:24.622Z,14.20
2019-04-16T20:02:54.659Z,14.30
2019-04-16T20:05:28.495Z,14.40
2019-04-16T20:07:56.454Z,14.40
2019-04-16T20:10:34.658Z,14.50
2019-04-16T20:13:04.840Z,14.50
2019-04-16T20:15:34.802Z,14.50
2019-04-16T20:18:07.080Z,14.50
2019-04-16T20:20:42.017Z,14.50
2019-04-16T20:23:12.054Z,14.40
2019-04-16T20:25:45.994Z,14.40
2019-04-16T20:28:18.050Z,14.40
2019-04-16T20:30:47.989Z,14.40
2019-04-16T20:33:17.882Z,14.40
2019-04-16T20:35:53.316Z,14.40
2019-04-16T20:38:29.315Z,14.40
2019-04-16T20:40:58.029Z,14.40
2019-04-16T20:43:31.866Z,14.30
2019-04-16T20:46:21.200Z,14.30
2019-04-16T20:49:05.691Z,14.30
2019-04-16T20:51:26.227Z,14.30
2019-04-16T20:53:57.540Z,14.30
2019-04-16T20:56:27.282Z,14.30
2019-04-16T20:59:05.675Z,14.30
2019-04-16T21:01:37.639Z,14.20
2019-04-16T21:04:06.984Z,14.20
2019-04-16T21:06:47.720Z,14.20
2019-04-16T21:09:17.403Z,14.20
2019-04-16T21:11:47.270Z,14.20
2019-04-16T21:14:21.778Z,14.10
2019-04-16T21:16:56.680Z,14.10
2019-04-16T21:19:46.779Z,14.10
2019-04-16T21:22:31.515Z,14.10
2019-04-16T21:25:01.172Z,14.00
2019-04-16T21:27:32.741Z,14.00
2019-04-16T21:30:03.094Z,14.00
2019-04-16T21:32:49.773Z,14.00
2019-04-16T21:35:25.187Z,14.00
2019-04-16T21:38:16.574Z,14.00
2019-04-16T21:40:46.257Z,13.90
2019-04-16T21:43:18.572Z,13.90
2019-04-16T21:45:58.417Z,13.90
2019-04-16T21:48:29.023Z,13.90
2019-04-16T21:50:59.085Z,13.90
2019-04-16T21:53:29.024Z,13.90
2019-04-16T21:56:07.823Z,13.80
2019-04-16T21:58:40.569Z,13.90
2019-04-16T22:01:27.310Z,13.80
2019-04-16T22:04:14.424Z,13.80
2019-04-16T22:06:49.093Z,13.80
2019-04-16T22:09:19.105Z,13.80
2019-04-16T22:12:01.546Z,13.70
2019-04-16T22:14:31.310Z,13.70
2019-04-16T22:17:04.157Z,13.60
2019-04-16T22:19:54.044Z,13.60
2019-04-16T22:22:14.916Z,13.50
2019-04-16T22:24:51.789Z,13.50
2019-04-16T22:27:25.511Z,13.50
2019-04-16T22:29:55.389Z,13.40
2019-04-16T22:32:27.097Z,13.40
2019-04-16T22:34:58.936Z,13.40
2019-04-16T22:37:37.001Z,13.40
2019-04-16T22:40:44.422Z,13.40
2019-04-16T22:43:51.445Z,13.30
2019-04-16T22:46:27.833Z,13.40
2019-04-16T22:49:02.416Z,13.30
2019-04-16T22:51:32.231Z,13.30
2019-04-16T22:54:13.172Z,13.30
2019-04-16T22:56:47.609Z,13.30
2019-04-16T22:59:21.220Z,13.20
2019-04-16T23:01:53.165Z,13.20
2019-04-16T23:04:29.026Z,13.20
2019-04-16T23:07:07.093Z,13.20
2019-04-16T23:09:38.001Z,13.10
2019-04-16T23:12:07.873Z,13.20
2019-04-16T23:14:37.553Z,13.10
2019-04-16T23:17:07.471Z,13.10
2019-04-16T23:19:37.258Z,13.10
2019-04-16T23:22:06.933Z,13.10
2019-04-16T23:24:36.812Z,13.10
2019-04-16T23:27:06.735Z,13.00
2019-04-16T23:29:36.679Z,13.00
2019-04-16T23:32:06.374Z,13.10
2019-04-16T23:34:37.943Z,13.10
2019-04-16T23:37:07.859Z,13.10
2019-04-16T23:39:37.653Z,13.10
2019-04-16T23:42:10.001Z,13.10
2019-04-16T23:45:17.042Z,13.00
2019-04-16T23:48:13.980Z,13.00
2019-04-16T23:50:52.152Z,12.90
2019-04-16T23:53:58.929Z,12.90
2019-04-16T23:56:41.406Z,12.90
2019-04-16T23:59:18.568Z,12.70
